Time;durP1;ratioP1;P1;durP2;ratioP2;P2;SDS_P1;SDS_P2;PMS_P1;PMS_P2;Temp;Humidity;BMP_temperature;BMP_pressure;BME280_temperature;BME280_humidity;BME280_pressure;Samples;Min_cycle;Max_cycle;Signal;HPM_P1;HPM_P2
2023/07/20 00:00:46;;;;;;;6.88;2.70;;;;;;;18.27;92.88;93866.19;4934489;29;20428;-62
2023/07/20 00:03:18;;;;;;;5.13;3.00;;;;;;;18.33;92.55;93866.31;4926872;29;20490;-61
2023/07/20 00:05:46;;;;;;;6.28;2.78;;;;;;;18.38;92.36;93859.38;4915308;29;20063;-62
2023/07/20 00:08:13;;;;;;;7.13;2.85;;;;;;;18.43;91.96;93862.28;4930353;29;20052;-61
2023/07/20 00:10:41;;;;;;;5.47;2.97;;;;;;;18.44;91.69;93852.72;4933974;29;20052;-61
2023/07/20 00:13:09;;;;;;;5.88;2.95;;;;;;;18.08;93.81;93861.91;4933484;29;20078;-61
2023/07/20 00:15:37;;;;;;;5.47;3.00;;;;;;;18.04;94.20;93856.50;4933892;29;20051;-64
2023/07/20 00:18:05;;;;;;;6.20;3.00;;;;;;;17.99;94.40;93867.47;4933213;29;20074;-61
2023/07/20 00:20:31;;;;;;;5.25;2.95;;;;;;;17.93;95.57;93875.69;4933781;29;20047;-61
2023/07/20 00:22:58;;;;;;;7.60;3.10;;;;;;;18.05;94.61;93865.59;4934018;29;20173;-61
2023/07/20 00:25:25;;;;;;;5.07;3.10;;;;;;;17.96;95.17;93869.19;4932742;29;20796;-61
2023/07/20 00:27:52;;;;;;;5.13;3.13;;;;;;;17.72;96.68;93874.56;4933793;29;20078;-63
2023/07/20 00:30:19;;;;;;;4.72;2.80;;;;;;;18.02;95.33;93874.88;4933058;29;20052;-64
2023/07/20 00:32:46;;;;;;;5.90;2.80;;;;;;;18.14;94.30;93879.50;4932503;29;20048;-61
2023/07/20 00:35:13;;;;;;;5.65;2.90;;;;;;;18.18;94.18;93874.53;4931889;29;20070;-61
2023/07/20 00:37:40;;;;;;;5.88;2.95;;;;;;;18.23;93.69;93881.47;4948080;29;20102;-61
2023/07/20 00:40:07;;;;;;;5.23;3.20;;;;;;;18.24;93.43;93881.00;4947481;29;20586;-62
2023/07/20 00:42:34;;;;;;;5.20;3.03;;;;;;;18.14;94.45;93876.72;4933515;29;20056;-63
2023/07/20 00:45:02;;;;;;;4.55;2.95;;;;;;;18.11;94.73;93874.84;4932915;29;20040;-61
2023/07/20 00:47:28;;;;;;;7.55;3.30;;;;;;;18.05;95.23;93871.94;4933285;29;20047;-61
2023/07/20 00:49:55;;;;;;;5.28;2.95;;;;;;;18.05;95.85;93874.72;4932239;29;20048;-61
2023/07/20 00:52:25;;;;;;;6.83;3.10;;;;;;;18.03;96.45;93870.84;4932759;29;20051;-61
2023/07/20 00:54:52;;;;;;;5.22;3.35;;;;;;;17.99;97.18;93873.81;4933162;29;20176;-61
2023/07/20 00:57:19;;;;;;;6.78;3.20;;;;;;;17.92;97.50;93882.44;4932918;29;20076;-61
2023/07/20 00:59:45;;;;;;;6.93;3.67;;;;;;;17.86;97.50;93875.97;4932983;29;20165;-63
2023/07/20 01:02:12;;;;;;;5.93;3.50;;;;;;;17.76;98.49;93870.38;4932365;29;20059;-62
2023/07/20 01:04:39;;;;;;;6.67;3.50;;;;;;;17.70;99.52;93877.03;4933336;29;20481;-61
2023/07/20 01:07:32;;;;;;;14.75;8.65;;;;;;;17.63;100.00;93869.78;4932603;29;20054;-61
2023/07/20 01:10:09;;;;;;;9.07;3.95;;;;;;;17.63;100.00;93874.56;4930669;29;20047;-64
2023/07/20 01:12:46;;;;;;;7.00;3.50;;;;;;;17.58;98.89;93865.59;4933209;29;20044;-64
2023/07/20 01:15:13;;;;;;;6.65;3.85;;;;;;;17.54;98.81;93865.00;4920264;29;20059;-61
2023/07/20 01:17:40;;;;;;;8.70;3.80;;;;;;;17.48;100.00;93872.38;4947454;29;20050;-62
2023/07/20 01:20:10;;;;;;;6.15;3.22;;;;;;;17.49;99.69;93859.31;4932477;29;20047;-61
2023/07/20 01:23:16;;;;;;;9.32;3.53;;;;;;;17.42;100.00;93863.13;4932850;29;20592;-62
2023/07/20 01:25:55;;;;;;;8.63;4.10;;;;;;;17.20;100.00;93868.06;4949713;28;20419;-63
2023/07/20 01:28:46;;;;;;;8.52;3.60;;;;;;;17.23;100.00;93861.59;4951173;28;20050;-61
2023/07/20 01:31:22;;;;;;;6.07;3.20;;;;;;;17.19;100.00;93852.66;4951208;28;20047;-63
2023/07/20 01:33:54;;;;;;;7.18;3.97;;;;;;;17.18;100.00;93860.19;4940666;28;20184;-61
2023/07/20 01:36:24;;;;;;;7.88;3.88;;;;;;;17.13;100.00;93858.81;4951132;28;20352;-60
2023/07/20 01:38:52;;;;;;;6.45;3.40;;;;;;;16.91;100.00;93852.59;4951670;28;20035;-61
2023/07/20 01:41:19;;;;;;;8.18;3.50;;;;;;;16.82;100.00;93856.13;4951176;28;23502;-63
2023/07/20 01:43:46;;;;;;;7.87;3.43;;;;;;;16.66;100.00;93854.34;4964774;28;20054;-61
2023/07/20 01:46:13;;;;;;;6.35;3.63;;;;;;;16.56;100.00;93859.09;4950444;28;20047;-61
2023/07/20 01:48:39;;;;;;;5.47;3.50;;;;;;;16.34;100.00;93856.38;4951402;28;20488;-61
2023/07/20 01:51:06;;;;;;;5.55;3.42;;;;;;;16.34;100.00;93856.38;4950733;28;20179;-63
2023/07/20 01:53:34;;;;;;;7.28;3.80;;;;;;;16.27;100.00;93853.09;4951128;28;20051;-62
2023/07/20 01:56:00;;;;;;;7.03;3.47;;;;;;;16.20;100.00;93865.22;4950882;28;20043;-63
2023/07/20 01:58:27;;;;;;;8.48;3.65;;;;;;;16.12;100.00;93850.88;4949971;28;20044;-61
2023/07/20 02:00:54;;;;;;;6.15;3.60;;;;;;;16.01;100.00;93860.78;4932231;29;20052;-61
2023/07/20 02:03:21;;;;;;;21.02;11.73;;;;;;;15.86;100.00;93863.34;4931183;29;20590;-62
2023/07/20 02:05:48;;;;;;;8.50;4.78;;;;;;;15.79;100.00;93867.09;4932202;29;20082;-61
2023/07/20 02:08:16;;;;;;;7.00;3.80;;;;;;;15.80;100.00;93870.66;4931288;29;20040;-63
2023/07/20 02:10:45;;;;;;;6.63;3.45;;;;;;;15.75;100.00;93860.94;4931991;29;20066;-61
2023/07/20 02:13:12;;;;;;;5.93;3.70;;;;;;;15.66;100.00;93858.84;4930379;29;20043;-61
2023/07/20 02:15:39;;;;;;;6.05;3.45;;;;;;;15.56;100.00;93855.25;4931358;29;20046;-61
2023/07/20 02:18:05;;;;;;;7.90;3.58;;;;;;;15.46;100.00;93850.84;4931905;29;20050;-61
2023/07/20 02:20:32;;;;;;;8.37;3.60;;;;;;;15.43;100.00;93859.28;4931791;29;20047;-61
2023/07/20 02:22:59;;;;;;;6.40;3.90;;;;;;;15.31;100.00;93853.34;4931031;29;20062;-60
2023/07/20 02:25:26;;;;;;;6.78;3.70;;;;;;;15.24;100.00;93856.34;4931836;29;20069;-62
2023/07/20 02:27:52;;;;;;;6.15;3.85;;;;;;;15.17;100.00;93851.84;4926166;29;20102;-61
2023/07/20 02:30:19;;;;;;;7.13;4.05;;;;;;;15.20;100.00;93855.72;4911953;29;20111;-63
2023/07/20 02:32:48;;;;;;;6.03;3.80;;;;;;;15.18;100.00;93852.63;4924594;29;20048;-60
2023/07/20 02:35:16;;;;;;;7.22;4.03;;;;;;;15.12;100.00;93854.41;4930737;29;20062;-60
2023/07/20 02:37:43;;;;;;;7.50;3.70;;;;;;;15.10;100.00;93857.59;4931251;29;20048;-60
2023/07/20 02:40:11;;;;;;;5.70;3.55;;;;;;;15.14;100.00;93854.72;4930964;29;20136;-61
2023/07/20 02:42:37;;;;;;;7.45;3.70;;;;;;;15.15;100.00;93848.75;4931196;29;20476;-63
2023/07/20 02:45:05;;;;;;;7.47;3.63;;;;;;;14.97;100.00;93857.66;4930614;29;20040;-61
2023/07/20 02:47:32;;;;;;;7.40;3.90;;;;;;;14.94;100.00;93857.75;4931175;29;20036;-62
2023/07/20 02:49:58;;;;;;;6.70;3.60;;;;;;;14.79;100.00;93857.47;4930964;29;20047;-61
2023/07/20 02:52:25;;;;;;;8.57;3.78;;;;;;;14.64;100.00;93859.91;4925836;29;20040;-61
2023/07/20 02:54:52;;;;;;;7.72;3.97;;;;;;;14.60;100.00;93859.25;4926935;29;20058;-61
2023/07/20 02:57:19;;;;;;;6.30;4.00;;;;;;;14.62;100.00;93864.31;4938599;29;20055;-61
2023/07/20 02:59:46;;;;;;;6.35;4.03;;;;;;;14.67;100.00;93869.28;4937283;29;20404;-61
2023/07/20 03:02:13;;;;;;;6.57;3.72;;;;;;;14.70;100.00;93863.66;4931343;29;20485;-61
2023/07/20 03:04:39;;;;;;;6.85;4.20;;;;;;;14.57;100.00;93862.91;4936893;29;20844;-62
2023/07/20 03:07:07;;;;;;;6.95;4.25;;;;;;;14.54;100.00;93866.50;4947448;29;20047;-61
2023/07/20 03:09:34;;;;;;;6.80;4.00;;;;;;;14.51;100.00;93873.69;4937621;29;20481;-61
2023/07/20 03:12:01;;;;;;;7.63;4.00;;;;;;;14.55;100.00;93868.06;4938192;29;20127;-64
2023/07/20 03:14:28;;;;;;;8.65;4.07;;;;;;;14.42;100.00;93868.03;4938915;29;20054;-61
2023/07/20 03:16:54;;;;;;;7.90;3.97;;;;;;;14.45;100.00;93863.66;4928824;29;20166;-61
2023/07/20 03:19:21;;;;;;;7.75;4.00;;;;;;;14.37;100.00;93869.38;4933688;29;20070;-63
2023/07/20 03:21:48;;;;;;;7.47;4.20;;;;;;;14.40;100.00;93867.72;4935450;29;20052;-61
2023/07/20 03:24:15;;;;;;;8.40;4.05;;;;;;;14.46;100.00;93870.69;4941298;29;20073;-61
2023/07/20 03:26:42;;;;;;;6.32;4.00;;;;;;;14.48;100.00;93868.28;4940389;29;20065;-61
2023/07/20 03:29:09;;;;;;;7.78;4.03;;;;;;;14.49;100.00;93876.13;4927000;29;20043;-63
2023/07/20 03:31:35;;;;;;;8.32;3.88;;;;;;;14.47;100.00;93878.56;4930645;29;20640;-62
2023/07/20 03:34:02;;;;;;;7.00;3.80;;;;;;;14.45;100.00;93872.69;4942159;29;20071;-60
2023/07/20 03:36:29;;;;;;;10.77;4.15;;;;;;;14.34;100.00;93875.00;4934347;29;20048;-60
2023/07/20 03:38:55;;;;;;;7.40;4.20;;;;;;;14.27;100.00;93875.22;4934469;29;20065;-63
2023/07/20 03:41:22;;;;;;;6.05;4.00;;;;;;;14.33;100.00;93879.00;4933681;29;20061;-62
2023/07/20 03:43:49;;;;;;;6.97;4.00;;;;;;;14.33;100.00;93876.22;4934553;29;20428;-61
2023/07/20 03:46:16;;;;;;;6.40;4.17;;;;;;;14.27;100.00;93878.75;4933698;29;20044;-63
2023/07/20 03:48:42;;;;;;;8.10;3.85;;;;;;;14.27;100.00;93873.25;4934118;29;20044;-61
2023/07/20 03:51:09;;;;;;;7.00;3.78;;;;;;;14.30;100.00;93874.34;4933583;29;20575;-61
2023/07/20 03:53:36;;;;;;;7.65;3.90;;;;;;;14.32;100.00;93871.91;4934383;29;20206;-63
2023/07/20 03:56:03;;;;;;;6.03;3.70;;;;;;;14.38;100.00;93875.66;4944469;28;20489;-61
2023/07/20 03:58:31;;;;;;;7.00;3.93;;;;;;;14.44;100.00;93873.13;4952289;28;20051;-64
2023/07/20 04:00:58;;;;;;;8.02;4.10;;;;;;;14.49;100.00;93862.31;4953508;28;20099;-61
2023/07/20 04:03:26;;;;;;;8.07;3.72;;;;;;;14.53;100.00;93864.97;4933271;29;20282;-60
2023/07/20 04:05:55;;;;;;;7.75;3.83;;;;;;;14.52;100.00;93871.69;4930843;29;20058;-61
2023/07/20 04:08:24;;;;;;;7.35;3.75;;;;;;;14.56;100.00;93869.63;4933454;29;20048;-63
2023/07/20 04:10:51;;;;;;;6.37;3.87;;;;;;;14.51;100.00;93864.63;4934199;29;20054;-63
2023/07/20 04:13:18;;;;;;;9.02;4.30;;;;;;;14.43;100.00;93872.38;4933351;29;20054;-61
2023/07/20 04:15:45;;;;;;;15.18;4.75;;;;;;;14.29;100.00;93876.34;4933550;29;20528;-61
2023/07/20 04:18:12;;;;;;;9.98;5.35;;;;;;;14.09;100.00;93879.28;4933267;29;20091;-63
2023/07/20 04:20:39;;;;;;;9.18;5.40;;;;;;;14.09;100.00;93882.03;4933491;29;20044;-61
2023/07/20 04:23:06;;;;;;;10.33;5.53;;;;;;;14.15;100.00;93885.03;4926833;29;20052;-63
2023/07/20 04:25:38;;;;;;;8.90;4.90;;;;;;;14.12;100.00;93886.66;4913524;29;20035;-61
2023/07/20 04:28:10;;;;;;;8.98;5.38;;;;;;;14.11;100.00;93881.63;4927529;29;20082;-61
2023/07/20 04:30:38;;;;;;;10.18;5.45;;;;;;;13.68;100.00;93894.66;4920900;29;20474;-61
2023/07/20 04:33:05;;;;;;;10.52;5.47;;;;;;;13.88;100.00;93882.66;4934028;29;20054;-61
2023/07/20 04:35:50;;;;;;;10.50;5.30;;;;;;;14.15;100.00;93877.53;4940026;28;20412;-63
2023/07/20 04:38:17;;;;;;;10.55;5.40;;;;;;;14.19;100.00;93883.72;4940832;29;20051;-62
2023/07/20 04:40:45;;;;;;;7.93;4.78;;;;;;;14.38;100.00;93890.22;4939499;29;20455;-61
2023/07/20 04:43:13;;;;;;;8.48;5.15;;;;;;;14.45;100.00;93888.50;4935938;29;20052;-62
2023/07/20 04:45:40;;;;;;;8.75;5.63;;;;;;;14.26;100.00;93879.97;4952187;29;20399;-60
2023/07/20 04:48:13;;;;;;;10.33;5.30;;;;;;;14.46;100.00;93882.50;4935966;29;20054;-60
2023/07/20 04:50:47;;;;;;;8.48;5.00;;;;;;;14.42;100.00;93884.59;4938807;28;20050;-63
2023/07/20 04:53:14;;;;;;;12.23;5.32;;;;;;;14.70;100.00;93885.75;4940790;29;20067;-61
2023/07/20 04:55:47;;;;;;;8.35;5.00;;;;;;;15.10;100.00;93899.06;4940875;29;20507;-61
2023/07/20 04:58:13;;;;;;;7.05;4.47;;;;;;;15.28;100.00;93895.72;4940552;29;20512;-61
2023/07/20 05:00:40;;;;;;;7.97;4.50;;;;;;;14.96;100.00;93894.78;4938410;29;20049;-61
2023/07/20 05:03:07;;;;;;;10.30;5.05;;;;;;;14.65;100.00;93900.13;4934545;29;20044;-61
2023/07/20 05:05:34;;;;;;;9.32;5.65;;;;;;;14.48;100.00;93899.41;4940763;29;20155;-61
2023/07/20 05:08:01;;;;;;;9.40;5.13;;;;;;;14.86;100.00;93900.66;4940148;29;20433;-63
2023/07/20 05:10:28;;;;;;;8.82;5.07;;;;;;;15.13;100.00;93903.72;4936743;29;20117;-61
2023/07/20 05:12:55;;;;;;;8.93;4.90;;;;;;;15.43;100.00;93898.75;4936984;29;20386;-61
2023/07/20 05:15:21;;;;;;;9.82;5.00;;;;;;;15.57;100.00;93898.28;4948052;29;20040;-61
2023/07/20 05:17:48;;;;;;;8.63;5.03;;;;;;;15.37;100.00;93903.31;4927283;29;20048;-60
2023/07/20 05:20:16;;;;;;;11.07;5.45;;;;;;;14.93;100.00;93897.66;4931954;29;20063;-61
2023/07/20 05:22:43;;;;;;;9.80;5.20;;;;;;;15.15;100.00;93901.28;4932397;29;20358;-63
2023/07/20 05:25:11;;;;;;;8.70;5.07;;;;;;;15.26;100.00;93902.91;4926345;29;20067;-61
2023/07/20 05:27:39;;;;;;;8.50;4.90;;;;;;;15.54;100.00;93896.41;4932366;29;20218;-63
2023/07/20 05:30:07;;;;;;;10.52;5.10;;;;;;;15.75;100.00;93892.16;4932032;29;20412;-61
2023/07/20 05:32:34;;;;;;;8.60;4.75;;;;;;;15.85;100.00;93892.97;4932464;29;20538;-62
2023/07/20 05:35:01;;;;;;;7.13;4.20;;;;;;;16.17;100.00;93888.25;4932294;29;20070;-61
2023/07/20 05:37:27;;;;;;;7.27;4.20;;;;;;;16.27;100.00;93892.63;4932600;29;20039;-61
2023/07/20 05:39:54;;;;;;;9.75;4.78;;;;;;;17.68;100.00;93887.81;4915384;29;20477;-62
2023/07/20 05:42:21;;;;;;;9.43;4.97;;;;;;;19.99;92.70;93886.94;4931861;29;20124;-64
2023/07/20 05:44:49;;;;;;;7.15;4.20;;;;;;;19.88;89.98;93884.69;4932272;29;20047;-62
2023/07/20 05:47:16;;;;;;;7.93;4.53;;;;;;;20.78;85.99;93883.50;4931885;29;20683;-65
2023/07/20 05:49:43;;;;;;;7.03;4.27;;;;;;;20.99;80.21;93880.75;4932601;29;20078;-63
2023/07/20 05:52:10;;;;;;;6.47;3.83;;;;;;;22.22;74.16;93878.78;4927019;29;20044;-65
2023/07/20 05:54:36;;;;;;;6.30;3.90;;;;;;;22.21;71.63;93880.03;4929489;29;20078;-62
2023/07/20 05:57:04;;;;;;;8.02;4.18;;;;;;;22.22;72.87;93881.59;4931768;29;20056;-63
2023/07/20 05:59:31;;;;;;;5.68;3.90;;;;;;;22.78;69.46;93889.75;4922806;29;20052;-64
2023/07/20 06:01:58;;;;;;;5.20;3.93;;;;;;;23.19;68.95;93889.56;4928957;29;20050;-63
2023/07/20 06:04:25;;;;;;;8.23;3.50;;;;;;;24.33;64.50;93883.97;4929567;29;20044;-66
2023/07/20 06:06:52;;;;;;;4.80;3.20;;;;;;;24.76;58.00;93887.88;4913326;29;20067;-64
2023/07/20 06:09:18;;;;;;;7.80;3.80;;;;;;;26.73;52.41;93881.69;4912989;29;20052;-63
2023/07/20 06:11:45;;;;;;;6.05;3.60;;;;;;;27.57;47.94;93885.84;4924670;29;20042;-62
2023/07/20 06:14:12;;;;;;;6.80;3.27;;;;;;;27.62;45.22;93885.00;4930900;29;20068;-63
2023/07/20 06:16:39;;;;;;;7.35;3.80;;;;;;;26.34;46.26;93882.69;4931745;29;20118;-64
2023/07/20 06:19:06;;;;;;;6.55;3.40;;;;;;;28.60;42.70;93875.63;4929930;28;20063;-63
2023/07/20 06:21:33;;;;;;;6.57;3.40;;;;;;;27.63;42.44;93880.91;4931596;29;20404;-65
2023/07/20 06:23:59;;;;;;;7.50;3.70;;;;;;;28.64;41.38;93873.25;4931281;29;20070;-62
2023/07/20 06:26:26;;;;;;;5.77;3.50;;;;;;;28.53;39.44;93881.88;4931742;29;20055;-63
2023/07/20 06:28:53;;;;;;;5.85;3.35;;;;;;;28.05;41.79;93877.88;4931735;29;20052;-65
2023/07/20 06:31:20;;;;;;;7.18;3.40;;;;;;;26.29;44.98;93872.22;4931637;29;21282;-63
2023/07/20 06:33:47;;;;;;;6.28;3.30;;;;;;;27.90;42.72;93875.50;4946835;29;20094;-63
2023/07/20 06:36:17;;;;;;;5.50;3.10;;;;;;;28.29;40.24;93871.41;4931478;29;20493;-62
2023/07/20 06:38:44;;;;;;;4.60;3.10;;;;;;;27.02;41.88;93874.53;4931904;29;20040;-63
2023/07/20 06:41:31;;;;;;;7.47;3.70;;;;;;;23.27;49.83;93879.44;4935211;29;20510;-66
2023/07/20 06:44:01;;;;;;;5.90;3.50;;;;;;;26.27;46.09;93874.78;4934465;29;20051;-63
2023/07/20 06:46:27;;;;;;;6.43;3.58;;;;;;;25.15;46.90;93871.00;4939180;29;20043;-63
2023/07/20 06:48:54;;;;;;;6.45;3.55;;;;;;;24.86;49.58;93873.06;4939558;29;20052;-62
2023/07/20 06:51:24;;;;;;;5.67;3.50;;;;;;;26.07;46.05;93871.03;4937656;29;20609;-64
2023/07/20 06:53:51;;;;;;;7.78;3.60;;;;;;;25.39;45.10;93873.28;4942084;29;20469;-62
2023/07/20 06:56:18;;;;;;;8.55;3.55;;;;;;;23.24;51.73;93880.44;4931303;29;20047;-62
2023/07/20 06:58:49;;;;;;;6.85;3.63;;;;;;;22.45;54.43;93879.03;4920747;29;20058;-62
2023/07/20 07:01:16;;;;;;;8.27;4.00;;;;;;;20.79;61.56;93889.88;4912424;29;20056;-62
2023/07/20 07:03:43;;;;;;;6.43;3.80;;;;;;;20.76;63.92;93883.22;4931721;29;20643;-62
2023/07/20 07:06:10;;;;;;;6.35;3.78;;;;;;;22.89;57.52;93889.81;4930695;29;20051;-62
2023/07/20 07:08:37;;;;;;;7.00;3.78;;;;;;;22.96;56.39;93882.25;4931553;29;20078;-62
2023/07/20 07:11:05;;;;;;;4.60;2.97;;;;;;;24.80;51.76;93874.38;4930022;29;20052;-62
2023/07/20 07:13:32;;;;;;;6.18;3.60;;;;;;;24.01;53.09;93874.97;4930467;29;20380;-62
2023/07/20 07:15:58;;;;;;;6.43;3.67;;;;;;;24.66;51.37;93874.09;4931435;29;20062;-63
2023/07/20 07:18:26;;;;;;;7.22;3.50;;;;;;;27.29;45.30;93880.50;4928390;29;20409;-63
2023/07/20 07:20:53;;;;;;;5.65;3.35;;;;;;;26.06;45.12;93877.22;4946637;29;20471;-63
2023/07/20 07:23:20;;;;;;;7.10;3.35;;;;;;;24.78;46.98;93874.13;4934379;29;20113;-64
2023/07/20 07:25:48;;;;;;;5.43;3.53;;;;;;;24.66;50.33;93876.91;4942496;29;20050;-66
2023/07/20 07:28:15;;;;;;;7.37;3.30;;;;;;;27.42;42.46;93872.16;4939126;29;20075;-65
2023/07/20 07:30:41;;;;;;;5.65;3.35;;;;;;;30.46;37.22;93875.16;4939402;29;20051;-64
2023/07/20 07:33:09;;;;;;;4.68;2.75;;;;;;;28.67;37.54;93877.06;4938762;29;20058;-63
2023/07/20 07:35:37;;;;;;;6.13;2.90;;;;;;;25.68;44.22;93882.44;4936078;29;20043;-62
2023/07/20 07:38:05;;;;;;;6.57;2.92;;;;;;;26.04;43.98;93876.97;4934150;29;20461;-63
2023/07/20 07:40:52;;;;;;;6.47;3.10;;;;;;;26.28;42.91;93876.31;4935435;29;20054;-62
2023/07/20 07:43:18;;;;;;;6.80;3.10;;;;;;;25.45;45.45;93874.03;4938686;29;20058;-63
2023/07/20 07:45:45;;;;;;;5.47;3.28;;;;;;;26.04;44.06;93874.91;4930866;29;20051;-62
2023/07/20 07:48:12;;;;;;;5.65;3.10;;;;;;;25.25;43.92;93871.53;4930836;29;20075;-64
2023/07/20 07:50:42;;;;;;;7.95;3.28;;;;;;;25.56;44.78;93859.22;4937829;29;20043;-62
2023/07/20 07:53:09;;;;;;;6.33;3.30;;;;;;;25.85;44.06;93862.69;4931029;29;20429;-62
2023/07/20 07:55:36;;;;;;;5.93;2.85;;;;;;;25.82;42.61;93863.75;4937366;29;20069;-64
2023/07/20 07:58:03;;;;;;;5.85;2.70;;;;;;;26.33;41.49;93860.69;4938574;28;20056;-62
2023/07/20 08:00:29;;;;;;;4.85;2.78;;;;;;;27.43;40.63;93867.28;4938721;29;20066;-62
2023/07/20 08:02:56;;;;;;;5.90;2.63;;;;;;;29.83;36.40;93857.91;4938864;29;20121;-63
2023/07/20 08:05:23;;;;;;;4.77;2.70;;;;;;;30.80;33.09;93856.63;4933950;29;20414;-65
2023/07/20 08:07:50;;;;;;;4.88;2.90;;;;;;;30.01;35.73;93864.75;4949001;28;20043;-63
2023/07/20 08:10:16;;;;;;;5.03;2.80;;;;;;;31.30;33.24;93862.41;4925308;29;20060;-63
2023/07/20 08:12:43;;;;;;;5.63;2.80;;;;;;;28.49;36.73;93861.63;4920546;29;20040;-62
2023/07/20 08:15:14;;;;;;;4.75;2.60;;;;;;;27.41;37.65;93858.59;4938360;29;20048;-63
2023/07/20 08:17:43;;;;;;;5.23;2.97;;;;;;;25.97;42.47;93852.19;4941919;29;20055;-63
2023/07/20 08:20:13;;;;;;;6.57;2.90;;;;;;;25.60;41.66;93858.97;4941870;29;20051;-62
2023/07/20 08:22:39;;;;;;;5.22;2.80;;;;;;;24.68;44.53;93856.75;4939824;29;20043;-62
2023/07/20 08:25:07;;;;;;;5.47;2.90;;;;;;;27.65;40.76;93860.66;4937709;28;20062;-62
2023/07/20 08:27:34;;;;;;;5.57;2.60;;;;;;;30.12;35.86;93852.44;4943386;29;20046;-63
2023/07/20 08:30:01;;;;;;;4.00;2.80;;;;;;;29.13;36.45;93854.56;4924795;29;20062;-62
2023/07/20 08:32:28;;;;;;;5.43;2.97;;;;;;;28.34;36.92;93850.81;4941359;29;20044;-64
2023/07/20 08:34:54;;;;;;;4.97;2.97;;;;;;;28.77;37.16;93847.13;4942020;29;20132;-62
2023/07/20 08:37:22;;;;;;;5.20;2.70;;;;;;;28.95;36.71;93847.63;4939311;29;20047;-63
2023/07/20 08:39:48;;;;;;;6.25;2.83;;;;;;;28.60;36.17;93855.88;4933986;29;20058;-62
2023/07/20 08:42:16;;;;;;;5.27;3.00;;;;;;;28.55;36.14;93861.59;4941165;29;20104;-63
2023/07/20 08:44:45;;;;;;;5.05;2.65;;;;;;;28.64;36.38;93861.97;4941500;29;20036;-63
2023/07/20 08:47:13;;;;;;;5.35;3.00;;;;;;;28.97;35.88;93859.91;4946151;29;20074;-62
2023/07/20 08:49:41;;;;;;;5.43;3.10;;;;;;;27.20;38.22;93867.47;4933774;29;20054;-62
2023/07/20 08:52:07;;;;;;;4.93;3.10;;;;;;;28.99;36.45;93860.13;4932995;29;20055;-65
2023/07/20 08:54:35;;;;;;;6.73;3.37;;;;;;;28.98;35.68;93858.63;4920985;29;20047;-63
2023/07/20 08:57:04;;;;;;;5.45;2.97;;;;;;;31.64;31.79;93851.72;4933223;29;20061;-65
2023/07/20 08:59:32;;;;;;;4.68;2.92;;;;;;;30.87;32.20;93855.94;4933530;29;20054;-65
2023/07/20 09:02:00;;;;;;;4.63;2.80;;;;;;;31.25;32.43;93852.72;4933743;29;20052;-62
2023/07/20 09:04:27;;;;;;;4.88;3.10;;;;;;;26.96;37.33;93856.91;4931254;29;21482;-65
2023/07/20 09:06:54;;;;;;;5.43;3.20;;;;;;;26.36;40.21;93851.19;4933794;29;20047;-63
2023/07/20 09:09:21;;;;;;;5.97;3.05;;;;;;;31.35;32.64;93845.25;4938607;28;20046;-66
2023/07/20 09:11:51;;;;;;;6.70;3.28;;;;;;;31.32;31.98;93839.94;4921797;29;20040;-62
2023/07/20 09:14:18;;;;;;;5.60;3.05;;;;;;;31.70;30.57;93833.78;4938260;29;20047;-63
2023/07/20 09:16:56;;;;;;;6.38;3.25;;;;;;;29.84;32.99;93833.19;4939269;29;20109;-62
2023/07/20 09:19:22;;;;;;;4.57;2.90;;;;;;;28.45;35.84;93845.03;4936127;29;20047;-62
2023/07/20 09:21:51;;;;;;;6.13;3.17;;;;;;;29.89;34.66;93842.91;4937291;29;20413;-65
2023/07/20 09:24:19;;;;;;;5.50;2.80;;;;;;;30.69;32.67;93832.16;4940597;28;20074;-62
2023/07/20 09:26:48;;;;;;;5.00;3.00;;;;;;;30.16;33.46;93827.38;4957234;28;20442;-61
2023/07/20 09:29:18;;;;;;;5.22;2.88;;;;;;;29.60;34.36;93829.28;4935739;29;20588;-62
2023/07/20 09:32:18;;;;;;;6.20;3.00;;;;;;;25.77;40.93;93837.16;4938265;29;20054;-62
2023/07/20 09:34:50;;;;;;;6.25;3.25;;;;;;;27.27;40.50;93832.34;4944572;29;21550;-62
2023/07/20 09:37:22;;;;;;;6.93;3.25;;;;;;;26.75;39.79;93827.69;4951477;29;20051;-62
2023/07/20 09:39:51;;;;;;;5.75;3.25;;;;;;;24.31;45.24;93832.47;4944545;29;20062;-62
2023/07/20 09:42:22;;;;;;;6.72;3.42;;;;;;;23.31;49.76;93826.00;4947114;29;20035;-62
2023/07/20 09:44:52;;;;;;;5.60;2.90;;;;;;;25.48;45.40;93825.25;4940491;29;20062;-64
2023/07/20 09:47:23;;;;;;;6.03;3.00;;;;;;;25.43;44.13;93826.03;4940164;29;20497;-61
2023/07/20 09:50:03;;;;;;;4.68;3.20;;;;;;;26.36;42.03;93820.25;4939771;29;20102;-61
2023/07/20 09:52:33;;;;;;;3.90;2.60;;;;;;;26.96;41.23;93822.38;4937373;29;20581;-62
2023/07/20 09:55:04;;;;;;;6.88;2.55;;;;;;;26.49;40.77;93812.72;4932491;29;20044;-61
2023/07/20 09:57:33;;;;;;;6.00;2.77;;;;;;;27.28;39.40;93819.78;4939523;29;20551;-61
2023/07/20 09:59:59;;;;;;;9.88;2.75;;;;;;;26.61;39.68;93821.88;4939907;29;20501;-61
2023/07/20 10:02:34;;;;;;;4.25;2.40;;;;;;;28.23;36.81;93820.72;4940278;29;20067;-63
2023/07/20 10:05:08;;;;;;;5.32;2.20;;;;;;;29.76;34.45;93806.88;4939625;29;20500;-62
2023/07/20 10:07:38;;;;;;;3.63;2.20;;;;;;;28.38;35.81;93808.19;4936947;29;20125;-62
2023/07/20 10:10:07;;;;;;;3.93;2.30;;;;;;;28.46;35.44;93804.19;4934982;29;20040;-62
2023/07/20 10:12:35;;;;;;;4.90;2.33;;;;;;;29.30;34.41;93806.97;4939011;29;20055;-61
2023/07/20 10:15:17;;;;;;;4.88;2.50;;;;;;;28.87;34.93;93803.03;4939659;29;20056;-62
2023/07/20 10:17:59;;;;;;;4.18;2.30;;;;;;;30.86;31.90;93792.84;4940036;29;20050;-62
2023/07/20 10:20:27;;;;;;;4.38;2.20;;;;;;;30.79;31.47;93785.03;4935117;29;20043;-62
2023/07/20 10:22:57;;;;;;;4.43;2.20;;;;;;;30.78;31.00;93788.44;4918441;29;20058;-62
2023/07/20 10:25:24;;;;;;;4.50;2.10;;;;;;;31.64;29.37;93772.28;4947122;28;20056;-64
2023/07/20 10:27:51;;;;;;;3.63;2.22;;;;;;;29.84;30.90;93777.41;4941915;29;20052;-64
2023/07/20 10:30:20;;;;;;;4.47;2.40;;;;;;;29.82;31.40;93779.22;4931506;29;20054;-62
2023/07/20 10:32:48;;;;;;;4.75;2.13;;;;;;;31.18;29.83;93777.63;4932061;29;20044;-61
2023/07/20 10:35:16;;;;;;;6.03;2.33;;;;;;;33.13;28.30;93765.16;4930991;29;20047;-63
2023/07/20 10:37:53;;;;;;;5.53;2.20;;;;;;;34.41;26.26;93766.00;4915135;29;20046;-62
2023/07/20 10:40:28;;;;;;;4.40;2.20;;;;;;;33.89;26.49;93760.69;4931590;29;20048;-62
2023/07/20 10:43:04;;;;;;;4.97;2.50;;;;;;;33.34;27.00;93759.25;4931710;29;20468;-62
2023/07/20 10:45:35;;;;;;;4.85;2.20;;;;;;;33.36;26.49;93755.84;4931110;29;20046;-62
2023/07/20 10:48:06;;;;;;;3.53;2.07;;;;;;;31.64;28.88;93758.09;4939220;29;20117;-61
2023/07/20 10:50:36;;;;;;;3.83;2.13;;;;;;;30.30;29.89;93762.25;4936133;29;20053;-62
2023/07/20 10:53:29;;;;;;;5.95;2.30;;;;;;;29.74;31.27;93767.06;4934450;29;20039;-64
2023/07/20 10:56:29;;;;;;;5.13;2.30;;;;;;;29.65;30.87;93754.88;4933658;29;20058;-62
2023/07/20 10:58:59;;;;;;;3.30;2.20;;;;;;;29.59;31.51;93764.78;4919427;29;20661;-62
2023/07/20 11:01:31;;;;;;;3.33;2.13;;;;;;;29.33;32.30;93751.41;4930952;29;20646;-61
2023/07/20 11:04:03;;;;;;;4.70;2.20;;;;;;;29.23;32.26;93745.44;4931808;29;20052;-64
2023/07/20 11:06:32;;;;;;;5.00;2.10;;;;;;;28.74;33.49;93754.28;4931219;29;20831;-61
2023/07/20 11:09:06;;;;;;;6.30;2.30;;;;;;;27.68;33.68;93752.44;4931508;29;20394;-61
2023/07/20 11:11:36;;;;;;;4.10;2.20;;;;;;;28.64;33.37;93754.66;4938814;29;20453;-64
2023/07/20 11:14:05;;;;;;;3.87;2.10;;;;;;;28.95;32.55;93751.56;4938952;29;20047;-61
2023/07/20 11:16:39;;;;;;;5.88;2.13;;;;;;;28.77;32.18;93739.06;4935524;29;20047;-62
2023/07/20 11:19:16;;;;;;;4.18;2.20;;;;;;;26.23;35.68;93742.09;4934143;29;20044;-61
2023/07/20 11:21:54;;;;;;;3.83;2.35;;;;;;;27.12;35.19;93739.00;4936794;29;20054;-61
2023/07/20 11:24:28;;;;;;;4.40;2.30;;;;;;;26.30;35.94;93739.47;4949453;28;20129;-64
2023/07/20 11:26:55;;;;;;;6.47;2.27;;;;;;;27.92;35.19;93740.34;4950732;29;20058;-62
2023/07/20 11:29:24;;;;;;;5.40;2.10;;;;;;;27.83;35.72;93730.19;4932890;29;20055;-61
2023/07/20 11:32:00;;;;;;;3.90;2.45;;;;;;;27.27;35.15;93740.13;4935960;29;20047;-62
2023/07/20 11:34:29;;;;;;;4.10;2.40;;;;;;;26.29;36.83;93737.19;4949489;29;21664;-64
2023/07/20 11:36:56;;;;;;;4.70;2.15;;;;;;;27.64;35.20;93730.19;4950387;29;20155;-62